Slagle, Missouri
Current Conditions -  °F | °C
As of 1:52 PM on Sunday 23 Nov 2014 (Local Time) from KSGF Reporting Station
Overcast Overcast  
Wind Chill: 15°   Ceiling: 1100
Heat Index: 15°   Visibility: 10mi
Dew Point: 13°   Wind: 10mph
Humidity: 87%   Direction: 160°SSE
Pressure: 29.34"   Gusts: NA
Location:  37.6066°N, 93.4143°W
Report Text: KSGF 231952Z 16009KT 10SM OVC011 15/13 A2934 RMK AO2 SLP929 T01500128
Loading
Personal Weather Stations






























Interactive Weather Map New forecast layout! Learn more

10-Day Weather Forecast

Advertisements
Track Severe Weather on mobile